McKinneysburg, Kentucky
Current Conditions -  °F | °C
As of 10:53 PM on Friday 19 Dec 2014 (Local Time) from KLUK Reporting Station
Overcast Overcast  
Wind Chill: 31°   Ceiling: 2500
Heat Index: 31°   Visibility: 10mi
Dew Point: 23°   Wind: 3mph
Humidity: 72%   Direction: 60°ENE
Pressure: 30.29"   Gusts: NA
Location:  38.6506°N, 84.351°W
Report Text: KLUK 200353Z AUTO 06003KT 10SM OVC025 M01/M05 A3029 RMK AO2 SLP262 T10061050
Loading
Personal Weather Stations






























Interactive Weather Map New forecast layout! Learn more

10-Day Weather Forecast

Advertisements
Track Severe Weather on mobile